Dan L — WDG4449 — position and weather

sailwx.info

Track history (hours):
 
Tides and Currents Weather Stations Pressure Air Temp Water Temp Dewpoint Dewpoint Depression Visibility Wind Speed Wind Dir Waves Ship Positions

Dan L

Owner: Enterprise Marine Services, LLC, San Antonio, TX. More information available from US FCC via Universal Licensing System and Coast Guard Vessel Documentation Center.

Last reported at 2017-Sep-29 08:54 UTC. Time now 2017-Oct-19 23:45 UTC.
Position N 32°44' W 091°09'.
Warning: this ship's position is 20 days out of date.

Length 307 m; draft 3 m.

Type: Tug. MMSI: 367536660.

Date/timePositionNaut miles runAvg speedWind from/ knotsBaromVisibWave heightAir tempDewpointWater temp
2017-Sep-29 08:54N 32°44' W 091°09'5 2.2
2017-Sep-29 06:48N 32°41' W 091°06'1 4.8
2017-Sep-29 06:30N 32°40' W 091°07'3 3.7
2017-Sep-29 05:39N 32°37' W 091°09'1 4.3
2017-Sep-29 05:30N 32°37' W 091°09'2 4.4
2017-Sep-29 05:00N 32°35' W 091°07'2 4.3
2017-Sep-29 04:30N 32°33' W 091°06'2 4.5
2017-Sep-29 04:00N 32°31' W 091°06'3 5.0
2017-Sep-29 03:30N 32°29' W 091°07'2 4.9
2017-Sep-29 03:00N 32°27' W 091°05'2 4.7
2017-Sep-29 02:30N 32°26' W 091°02'2 4.4
2017-Sep-29 02:00N 32°25' W 090°60'2 4.1
2017-Sep-29 01:30N 32°23' W 090°60'1 2.8
2017-Sep-29 01:00N 32°21' W 091°00'3 5.2
2017-Sep-29 00:30N 32°21' W 090°57'2 4.7
2017-Sep-29 00:00N 32°20' W 090°54'2 4.4
2017-Sep-28 23:30N 32°18' W 090°55'3 5.3
2017-Sep-28 23:00N 32°17' W 090°57'2 4.4
2017-Sep-28 22:30N 32°15' W 090°59'3 5.2
2017-Sep-28 22:00N 32°12' W 090°59'2 4.9
2017-Sep-28 21:30N 32°10' W 091°00'2 4.5
2017-Sep-28 21:00N 32°08' W 091°01'2 3.8
2017-Sep-28 20:28N 32°08' W 091°03'2 2.6
2017-Sep-28 19:37N 32°08' W 091°06'1 4.6
2017-Sep-28 19:30N 32°08' W 091°06'3 2.6
2017-Sep-28 18:17N 32°05' W 091°04'4 4.4
2017-Sep-28 17:19N 32°01' W 091°05'  
2017-Sep-22 01:13N 31°58' W 091°11'5 8.1
2017-Sep-22 00:35N 31°60' W 091°06'1 8.6
2017-Sep-22 00:30N 32°00' W 091°05'5 7.9
2017-Sep-21 23:54N 32°05' W 091°04'3 7.7
2017-Sep-21 23:30N 32°07' W 091°07'2 4.9
2017-Sep-21 23:00N 32°08' W 091°04'3 6.1
2017-Sep-21 22:30N 32°08' W 091°00'4 8.9
2017-Sep-21 22:00N 32°13' W 090°59'4 8.7
2017-Sep-21 21:30N 32°17' W 090°57'4 8.1
2017-Sep-21 21:00N 32°20' W 090°54'3 6.0
2017-Sep-21 20:31N 32°21' W 090°57'2 4.9
2017-Sep-21 20:00N 32°22' W 091°00'4 7.6
2017-Sep-21 19:30N 32°25' W 091°00'4 8.6
2017-Sep-21 19:00N 32°27' W 091°05'4 7.6
2017-Sep-21 18:26N 32°31' W 091°06'4 7.8
2017-Sep-21 17:58N 32°35' W 091°07'5 8.2
2017-Sep-21 17:22N 32°40' W 091°08'  
Track history (hours):
 
Tides and Currents Weather Stations Pressure Air Temp Water Temp Dewpoint Dewpoint Depression Visibility Wind Speed Wind Dir Waves Ship Positions

Dan L

Owner: Enterprise Marine Services, LLC, San Antonio, TX. More information available from US FCC via Universal Licensing System and Coast Guard Vessel Documentation Center.

Last reported at 2017-Sep-29 08:54 UTC. Time now 2017-Oct-19 23:45 UTC.
Position N 32°44' W 091°09'.
Warning: this ship's position is 20 days out of date.

Length 307 m; draft 3 m.

Type: Tug. MMSI: 367536660.

Date/timePositionNaut miles runAvg speedWind from/ knotsBaromVisibWave heightAir tempDewpointWater temp
2017-Sep-29 08:54N 32°44' W 091°09'5 2.2
2017-Sep-29 06:48N 32°41' W 091°06'1 4.8
2017-Sep-29 06:30N 32°40' W 091°07'3 3.7
2017-Sep-29 05:39N 32°37' W 091°09'1 4.3
2017-Sep-29 05:30N 32°37' W 091°09'2 4.4
2017-Sep-29 05:00N 32°35' W 091°07'2 4.3
2017-Sep-29 04:30N 32°33' W 091°06'2 4.5
2017-Sep-29 04:00N 32°31' W 091°06'3 5.0
2017-Sep-29 03:30N 32°29' W 091°07'2 4.9
2017-Sep-29 03:00N 32°27' W 091°05'2 4.7
2017-Sep-29 02:30N 32°26' W 091°02'2 4.4
2017-Sep-29 02:00N 32°25' W 090°60'2 4.1
2017-Sep-29 01:30N 32°23' W 090°60'1 2.8
2017-Sep-29 01:00N 32°21' W 091°00'3 5.2
2017-Sep-29 00:30N 32°21' W 090°57'2 4.7
2017-Sep-29 00:00N 32°20' W 090°54'2 4.4
2017-Sep-28 23:30N 32°18' W 090°55'3 5.3
2017-Sep-28 23:00N 32°17' W 090°57'2 4.4
2017-Sep-28 22:30N 32°15' W 090°59'3 5.2
2017-Sep-28 22:00N 32°12' W 090°59'2 4.9
2017-Sep-28 21:30N 32°10' W 091°00'2 4.5
2017-Sep-28 21:00N 32°08' W 091°01'2 3.8
2017-Sep-28 20:28N 32°08' W 091°03'2 2.6
2017-Sep-28 19:37N 32°08' W 091°06'1 4.6
2017-Sep-28 19:30N 32°08' W 091°06'3 2.6
2017-Sep-28 18:17N 32°05' W 091°04'4 4.4
2017-Sep-28 17:19N 32°01' W 091°05'  
2017-Sep-22 01:13N 31°58' W 091°11'5 8.1
2017-Sep-22 00:35N 31°60' W 091°06'1 8.6
2017-Sep-22 00:30N 32°00' W 091°05'5 7.9
2017-Sep-21 23:54N 32°05' W 091°04'3 7.7
2017-Sep-21 23:30N 32°07' W 091°07'2 4.9
2017-Sep-21 23:00N 32°08' W 091°04'3 6.1
2017-Sep-21 22:30N 32°08' W 091°00'4 8.9
2017-Sep-21 22:00N 32°13' W 090°59'4 8.7
2017-Sep-21 21:30N 32°17' W 090°57'4 8.1
2017-Sep-21 21:00N 32°20' W 090°54'3 6.0
2017-Sep-21 20:31N 32°21' W 090°57'2 4.9
2017-Sep-21 20:00N 32°22' W 091°00'4 7.6
2017-Sep-21 19:30N 32°25' W 091°00'4 8.6
2017-Sep-21 19:00N 32°27' W 091°05'4 7.6
2017-Sep-21 18:26N 32°31' W 091°06'4 7.8
2017-Sep-21 17:58N 32°35' W 091°07'5 8.2
2017-Sep-21 17:22N 32°40' W 091°08'  

Dump ship's entire track history